createdAt,value
2022-10-12T04:03:14.561Z,9.10
2022-10-12T04:05:42.258Z,8.90
2022-10-12T04:08:10.330Z,8.80
2022-10-12T04:10:38.019Z,8.80
2022-10-12T04:13:05.749Z,8.80
2022-10-12T04:15:33.465Z,8.80
2022-10-12T04:18:01.208Z,8.80
2022-10-12T04:20:30.469Z,8.60
2022-10-12T04:22:58.271Z,8.60
2022-10-12T04:25:30.041Z,8.60
2022-10-12T04:27:58.163Z,8.60
2022-10-12T04:30:26.024Z,8.50
2022-10-12T04:32:53.785Z,8.60
2022-10-12T04:35:21.483Z,8.50
2022-10-12T04:37:50.505Z,8.50
2022-10-12T04:40:18.439Z,8.50
2022-10-12T04:42:46.207Z,8.50
2022-10-12T04:45:14.033Z,8.50
2022-10-12T04:47:41.896Z,8.40
2022-10-12T04:50:09.897Z,8.40
2022-10-12T04:52:37.802Z,8.40
2022-10-12T04:55:08.377Z,8.40
2022-10-12T04:57:36.269Z,8.40
2022-10-12T05:00:07.991Z,8.40
2022-10-12T05:02:35.811Z,8.40
2022-10-12T05:05:03.639Z,8.40
2022-10-12T05:07:31.522Z,8.30
2022-10-12T05:09:59.253Z,8.30
2022-10-12T05:12:28.437Z,8.30
2022-10-12T05:14:56.192Z,8.30
2022-10-12T05:17:23.883Z,8.30
2022-10-12T05:19:51.620Z,8.30
2022-10-12T05:22:19.401Z,8.30
2022-10-12T05:24:51.317Z,8.30
2022-10-12T05:27:21.389Z,8.30
2022-10-12T05:29:50.490Z,8.20
2022-10-12T05:32:18.310Z,8.20
2022-10-12T05:34:46.096Z,8.10
2022-10-12T05:37:13.854Z,8.10
2022-10-12T05:39:41.692Z,8.10
2022-10-12T05:42:09.487Z,8.20
2022-10-12T05:44:37.633Z,8.20
2022-10-12T05:47:06.704Z,8.10
2022-10-12T05:49:34.630Z,8.20
2022-10-12T05:52:02.390Z,8.20
2022-10-12T05:54:30.195Z,8.20
2022-10-12T05:56:58.715Z,8.20
2022-10-12T05:59:26.529Z,8.30
2022-10-12T06:01:54.494Z,8.30
2022-10-12T06:04:23.807Z,8.30
2022-10-12T06:06:51.684Z,8.30
2022-10-12T06:09:19.706Z,8.40
2022-10-12T06:11:47.423Z,8.40
2022-10-12T06:14:15.708Z,8.90
2022-10-12T06:16:43.727Z,8.50
2022-10-12T06:19:12.551Z,8.50
2022-10-12T06:21:41.677Z,8.60
2022-10-12T06:24:09.873Z,8.60
2022-10-12T06:26:37.601Z,8.60
2022-10-12T06:29:05.494Z,8.60
2022-10-12T06:31:33.891Z,7.90
2022-10-12T06:34:01.785Z,8.50
2022-10-12T06:36:29.569Z,8.50
2022-10-12T06:38:58.673Z,8.50
2022-10-12T06:41:26.440Z,8.50
2022-10-12T06:43:54.303Z,8.50
2022-10-12T06:46:22.093Z,8.60
2022-10-12T06:48:50.464Z,8.50
2022-10-12T06:51:18.369Z,8.60
2022-10-12T06:53:46.278Z,8.60
2022-10-12T06:56:15.349Z,8.60
2022-10-12T06:58:43.064Z,8.60
2022-10-12T07:01:11.306Z,8.60
2022-10-12T07:03:39.322Z,8.60
2022-10-12T07:06:09.228Z,8.60
2022-10-12T07:08:37.107Z,8.60
2022-10-12T07:11:06.443Z,8.80
2022-10-12T07:13:35.639Z,8.80
2022-10-12T07:16:03.479Z,8.90
2022-10-12T07:18:31.440Z,8.90
2022-10-12T07:21:02.283Z,8.90
2022-10-12T07:23:30.647Z,9.00
2022-10-12T07:25:58.713Z,9.00
2022-10-12T07:28:26.859Z,9.10
2022-10-12T07:31:00.824Z,9.10
2022-10-12T07:33:31.416Z,9.10
2022-10-12T07:36:17.317Z,9.20
2022-10-12T07:38:48.577Z,9.30
2022-10-12T07:41:16.988Z,9.40
2022-10-12T07:43:44.785Z,9.50
2022-10-12T07:46:13.996Z,9.40
2022-10-12T07:48:47.262Z,9.50
2022-10-12T07:51:15.195Z,9.50
2022-10-12T07:53:42.944Z,9.60
2022-10-12T07:56:15.097Z,9.60
2022-10-12T07:58:43.001Z,9.70
2022-10-12T08:01:11.179Z,9.70
2022-10-12T08:03:40.916Z,9.80
2022-10-12T08:06:15.444Z,9.80
2022-10-12T08:08:44.354Z,10.00
2022-10-12T08:11:12.985Z,10.00
2022-10-12T08:13:42.127Z,10.10
2022-10-12T08:16:13.077Z,10.10
2022-10-12T08:18:42.420Z,10.10
2022-10-12T08:21:12.342Z,10.20
2022-10-12T08:23:40.564Z,10.30
2022-10-12T08:26:08.610Z,10.40
2022-10-12T08:28:37.267Z,10.40
2022-10-12T08:31:08.193Z,10.40
2022-10-12T08:33:35.946Z,10.50
2022-10-12T08:36:06.797Z,10.60
2022-10-12T08:38:36.516Z,10.60
2022-10-12T08:41:14.304Z,10.70
2022-10-12T08:43:55.609Z,10.70
2022-10-12T08:46:24.708Z,10.80
2022-10-12T08:48:58.781Z,10.80
2022-10-12T08:51:31.575Z,10.90
2022-10-12T08:54:08.121Z,11.00
2022-10-12T08:56:36.514Z,11.10
2022-10-12T08:59:04.636Z,11.10
2022-10-12T09:01:37.409Z,11.20
2022-10-12T09:04:24.449Z,11.20
2022-10-12T09:07:00.582Z,11.30
2022-10-12T09:09:43.265Z,11.40
2022-10-12T09:12:24.994Z,11.40
2022-10-12T09:14:57.217Z,11.50
2022-10-12T09:17:29.884Z,11.60
2022-10-12T09:20:05.010Z,11.70
2022-10-12T09:22:35.557Z,11.80
2022-10-12T09:25:04.068Z,11.80
2022-10-12T09:27:33.208Z,11.90
2022-10-12T09:30:04.229Z,12.00
2022-10-12T09:32:55.570Z,12.10
2022-10-12T09:35:23.472Z,12.10
2022-10-12T09:37:54.518Z,12.20
2022-10-12T09:40:26.943Z,12.30
2022-10-12T09:42:55.416Z,12.40
2022-10-12T09:45:23.819Z,12.50
2022-10-12T09:48:18.708Z,12.60
2022-10-12T09:50:50.990Z,12.70
2022-10-12T09:53:35.282Z,12.70
2022-10-12T09:56:11.703Z,12.80
2022-10-12T09:58:51.689Z,13.00
2022-10-12T10:01:23.375Z,13.00
2022-10-12T10:04:07.677Z,13.10
2022-10-12T10:06:36.294Z,13.10
2022-10-12T10:09:05.801Z,13.20
2022-10-12T10:11:33.965Z,13.30
2022-10-12T10:14:03.005Z,13.30
2022-10-12T10:16:32.050Z,13.40
2022-10-12T10:19:02.555Z,13.40
2022-10-12T10:21:34.384Z,13.60
2022-10-12T10:24:03.800Z,13.60
2022-10-12T10:26:53.182Z,13.70
2022-10-12T10:29:37.808Z,13.70
2022-10-12T10:32:23.638Z,13.90
2022-10-12T10:35:02.758Z,13.90
2022-10-12T10:37:32.024Z,14.00
2022-10-12T10:40:00.748Z,14.00
2022-10-12T10:42:32.686Z,14.10
2022-10-12T10:45:04.118Z,14.20
2022-10-12T10:47:33.447Z,14.20
2022-10-12T10:50:03.711Z,14.30
2022-10-12T10:52:34.353Z,14.40
2022-10-12T10:55:17.809Z,14.40
2022-10-12T10:57:53.356Z,14.50
2022-10-12T11:00:40.028Z,14.60
2022-10-12T11:03:14.070Z,13.60
2022-10-12T11:05:45.889Z,14.80
2022-10-12T11:08:20.799Z,14.90
2022-10-12T11:10:53.470Z,15.10
2022-10-12T11:13:26.498Z,15.10
2022-10-12T11:15:58.771Z,15.20
2022-10-12T11:18:34.296Z,15.30
2022-10-12T11:21:05.753Z,15.40
2022-10-12T11:23:41.395Z,15.40
2022-10-12T11:26:23.915Z,15.50
2022-10-12T11:28:55.592Z,15.60
2022-10-12T11:31:27.812Z,15.80
2022-10-12T11:33:57.600Z,15.80
2022-10-12T11:36:29.749Z,15.80
2022-10-12T11:39:06.933Z,15.90
2022-10-12T11:42:03.299Z,16.10
2022-10-12T11:44:40.959Z,16.10
2022-10-12T11:47:16.685Z,16.30
2022-10-12T11:49:51.515Z,16.50
2022-10-12T11:52:23.850Z,16.60
2022-10-12T11:55:01.311Z,16.70
2022-10-12T11:57:34.901Z,16.90
2022-10-12T12:00:08.445Z,17.40
2022-10-12T12:02:41.708Z,17.10
2022-10-12T12:05:16.474Z,17.10
2022-10-12T12:07:47.571Z,17.20
2022-10-12T12:11:04.279Z,17.30
2022-10-12T12:13:33.069Z,17.20
2022-10-12T12:16:32.689Z,18.40
2022-10-12T12:19:35.839Z,17.30
2022-10-12T12:22:19.264Z,17.30
2022-10-12T12:25:04.329Z,17.40
2022-10-12T12:27:35.883Z,17.40
2022-10-12T12:30:07.110Z,17.50
2022-10-12T12:32:46.664Z,17.60
2022-10-12T12:35:23.596Z,17.70
2022-10-12T12:38:17.105Z,17.80
2022-10-12T12:41:06.342Z,18.00
2022-10-12T12:43:54.817Z,18.00
2022-10-12T12:46:22.991Z,18.00
2022-10-12T12:49:07.264Z,18.00
2022-10-12T12:51:43.278Z,17.90
2022-10-12T12:54:19.060Z,17.80
2022-10-12T12:57:11.058Z,17.70
2022-10-12T13:00:11.461Z,17.60
2022-10-12T13:03:22.910Z,17.50
2022-10-12T13:06:32.262Z,17.60
2022-10-12T13:09:33.143Z,17.50
2022-10-12T13:12:32.391Z,17.50
2022-10-12T13:15:22.109Z,17.60
2022-10-12T13:18:18.554Z,17.60
2022-10-12T13:20:56.709Z,17.60
2022-10-12T13:23:28.179Z,17.60
2022-10-12T13:26:02.138Z,17.60
2022-10-12T13:28:32.153Z,17.70
2022-10-12T13:31:03.010Z,17.70
2022-10-12T13:33:35.208Z,17.70
2022-10-12T13:36:06.963Z,17.70
2022-10-12T13:38:38.415Z,17.70
2022-10-12T13:41:10.337Z,17.60
2022-10-12T13:43:44.638Z,17.60
2022-10-12T13:46:14.226Z,17.80
2022-10-12T13:48:59.444Z,17.80
2022-10-12T13:51:30.890Z,18.00
2022-10-12T13:54:00.075Z,18.00
2022-10-12T13:56:30.735Z,17.90
2022-10-12T13:59:01.644Z,17.70
2022-10-12T14:01:30.375Z,17.60
2022-10-12T14:04:04.870Z,17.60
2022-10-12T14:06:35.268Z,17.60
2022-10-12T14:09:09.592Z,17.70
2022-10-12T14:11:38.389Z,17.70
2022-10-12T14:14:07.459Z,17.70
2022-10-12T14:16:35.331Z,17.70
2022-10-12T14:19:18.825Z,17.70
2022-10-12T14:21:48.504Z,17.70
2022-10-12T14:24:19.921Z,17.70
2022-10-12T14:26:55.239Z,17.70
2022-10-12T14:29:35.672Z,17.70
2022-10-12T14:32:06.239Z,17.40
2022-10-12T14:34:45.236Z,17.40
2022-10-12T14:37:29.033Z,17.40
2022-10-12T14:40:02.424Z,17.40
2022-10-12T14:42:32.988Z,17.40
2022-10-12T14:45:02.231Z,18.10
2022-10-12T14:47:32.890Z,17.40
2022-10-12T14:50:07.616Z,17.40
2022-10-12T14:52:40.444Z,17.40
2022-10-12T14:55:16.481Z,17.40
2022-10-12T14:57:44.863Z,17.40
2022-10-12T15:00:15.590Z,17.40
2022-10-12T15:02:44.307Z,17.40
2022-10-12T15:05:13.592Z,17.50
2022-10-12T15:07:41.543Z,17.40
2022-10-12T15:10:11.118Z,17.50
2022-10-12T15:12:39.043Z,17.40
2022-10-12T15:15:29.096Z,17.40
2022-10-12T15:17:57.885Z,17.40
2022-10-12T15:20:25.813Z,17.40
2022-10-12T15:22:53.749Z,17.40
2022-10-12T15:25:26.982Z,17.40
2022-10-12T15:27:54.703Z,17.40
2022-10-12T15:30:22.513Z,17.40
2022-10-12T15:32:50.495Z,17.30
2022-10-12T15:35:21.069Z,17.30
2022-10-12T15:37:49.614Z,17.20
2022-10-12T15:40:18.553Z,17.20
2022-10-12T15:42:48.060Z,17.20
2022-10-12T15:45:22.267Z,17.20
2022-10-12T15:47:52.599Z,17.20
2022-10-12T15:50:22.438Z,17.10
2022-10-12T15:52:50.433Z,17.10
2022-10-12T15:55:21.880Z,17.10
2022-10-12T15:57:52.013Z,17.10
2022-10-12T16:00:22.358Z,17.10
2022-10-12T16:02:50.316Z,17.00
2022-10-12T16:05:22.125Z,17.00
2022-10-12T16:07:50.336Z,17.00
2022-10-12T16:10:21.041Z,16.90
2022-10-12T16:12:52.220Z,16.90
2022-10-12T16:15:22.407Z,16.90
2022-10-12T16:17:50.458Z,16.80
2022-10-12T16:20:19.055Z,16.80
2022-10-12T16:22:49.327Z,16.80
2022-10-12T16:25:23.801Z,16.80
2022-10-12T16:27:53.552Z,16.70
2022-10-12T16:30:21.572Z,16.70
2022-10-12T16:32:49.798Z,16.70
2022-10-12T16:35:18.150Z,16.60
2022-10-12T16:37:46.279Z,16.60
2022-10-12T16:40:14.511Z,16.60
2022-10-12T16:42:42.441Z,16.50
2022-10-12T16:45:12.611Z,16.50
2022-10-12T16:47:42.684Z,16.40
2022-10-12T16:50:11.368Z,16.40
2022-10-12T16:52:39.278Z,16.40
2022-10-12T16:55:07.950Z,16.30
2022-10-12T16:57:35.956Z,16.30
2022-10-12T17:00:05.163Z,16.30
2022-10-12T17:02:34.460Z,16.20
2022-10-12T17:05:02.262Z,16.20
2022-10-12T17:07:30.403Z,16.20
2022-10-12T17:09:58.496Z,16.10
2022-10-12T17:12:27.335Z,16.10
2022-10-12T17:14:55.238Z,16.10
2022-10-12T17:17:22.962Z,16.10
2022-10-12T17:19:52.178Z,16.10
2022-10-12T17:22:19.930Z,16.10
2022-10-12T17:24:48.263Z,16.10
2022-10-12T17:27:16.712Z,16.10
2022-10-12T17:29:45.556Z,16.10
2022-10-12T17:32:13.985Z,16.00
2022-10-12T17:34:44.412Z,16.00
2022-10-12T17:37:14.561Z,16.00
2022-10-12T17:39:44.440Z,16.00
2022-10-12T17:42:12.690Z,16.00
2022-10-12T17:44:40.567Z,16.00
2022-10-12T17:47:08.446Z,16.00
2022-10-12T17:49:36.300Z,16.00
2022-10-12T17:52:04.028Z,16.00
2022-10-12T17:54:33.092Z,16.00
2022-10-12T17:57:00.893Z,15.90
2022-10-12T17:59:28.665Z,15.90
2022-10-12T18:01:56.768Z,15.90
2022-10-12T18:04:24.624Z,15.90
2022-10-12T18:06:56.153Z,17.30
2022-10-12T18:09:23.994Z,15.90
2022-10-12T18:11:54.343Z,16.00
2022-10-12T18:14:22.214Z,16.00
2022-10-12T18:16:49.917Z,16.00
2022-10-12T18:19:17.768Z,16.00
2022-10-12T18:21:45.551Z,15.90
2022-10-12T18:24:17.335Z,15.90
2022-10-12T18:26:51.109Z,15.80
2022-10-12T18:29:37.806Z,15.80
2022-10-12T18:32:06.680Z,15.80
2022-10-12T18:37:04.802Z,15.80
2022-10-12T18:44:54.752Z,15.60
2022-10-12T18:47:24.608Z,15.50
2022-10-12T18:49:52.547Z,15.50
2022-10-12T18:52:21.493Z,15.40
2022-10-12T18:54:51.135Z,15.30
2022-10-12T18:57:18.945Z,15.30
2022-10-12T18:59:50.341Z,15.30
2022-10-12T19:04:49.575Z,15.20
2022-10-12T19:07:17.422Z,15.20
2022-10-12T19:09:45.158Z,15.20
2022-10-12T19:12:16.509Z,15.20
2022-10-12T19:14:44.597Z,15.20
2022-10-12T19:17:13.725Z,15.20
2022-10-12T19:19:41.568Z,15.20
2022-10-12T19:22:09.453Z,15.10
2022-10-12T19:24:37.193Z,15.10
2022-10-12T19:27:04.935Z,15.10
2022-10-12T19:29:32.740Z,15.10
2022-10-12T19:32:00.548Z,15.00
2022-10-12T19:39:26.569Z,14.90
2022-10-12T19:41:54.495Z,14.80
2022-10-12T19:44:22.398Z,14.80
2022-10-12T19:46:51.455Z,14.80
2022-10-12T19:49:20.037Z,14.70
2022-10-12T19:51:49.266Z,14.70
2022-10-12T19:54:17.070Z,14.70
2022-10-12T19:56:44.994Z,14.80
2022-10-12T19:59:12.798Z,14.80
2022-10-12T20:01:41.085Z,14.80
2022-10-12T20:04:11.885Z,14.80
2022-10-12T20:06:39.956Z,14.80
2022-10-12T20:09:10.203Z,14.80
2022-10-12T20:11:38.345Z,14.80
2022-10-12T20:14:08.113Z,14.70
2022-10-12T20:16:37.262Z,14.70
2022-10-12T20:19:06.396Z,14.70
2022-10-12T20:21:36.409Z,14.70
2022-10-12T20:24:04.419Z,14.70
2022-10-12T20:26:33.572Z,14.60
2022-10-12T20:29:01.901Z,14.60
2022-10-12T20:31:29.663Z,14.60
2022-10-12T20:33:58.154Z,14.60
2022-10-12T20:36:28.050Z,14.60
2022-10-12T20:38:56.238Z,14.60
2022-10-12T20:41:25.225Z,14.60
2022-10-12T20:43:57.263Z,14.50
2022-10-12T20:46:25.700Z,14.40
2022-10-12T20:48:58.811Z,14.40
2022-10-12T20:51:29.065Z,14.40
2022-10-12T20:53:59.252Z,14.30
2022-10-12T20:56:27.799Z,14.20
2022-10-12T20:58:57.060Z,14.20
2022-10-12T21:01:26.282Z,14.10
2022-10-12T21:03:54.100Z,14.10
2022-10-12T21:06:23.380Z,14.00
2022-10-12T21:08:54.614Z,14.00
2022-10-12T21:11:23.462Z,14.00
2022-10-12T21:13:52.120Z,14.00
2022-10-12T21:16:21.524Z,13.90
2022-10-12T21:21:22.998Z,13.90
2022-10-12T21:23:54.047Z,13.90
2022-10-12T21:28:51.370Z,13.90
2022-10-12T21:31:21.181Z,13.90
2022-10-12T21:33:49.327Z,13.80
2022-10-12T21:38:49.184Z,13.80
2022-10-12T21:41:18.379Z,13.80
2022-10-12T21:43:48.248Z,13.80
2022-10-12T21:46:18.006Z,13.80
2022-10-12T21:48:47.401Z,13.80
2022-10-12T21:51:17.898Z,13.80
2022-10-12T21:53:46.695Z,13.80
2022-10-12T21:56:16.596Z,13.70
2022-10-12T21:58:45.281Z,13.70
2022-10-12T22:01:15.012Z,13.70
2022-10-12T22:03:44.167Z,13.60
2022-10-12T22:06:16.488Z,13.60
2022-10-12T22:08:44.699Z,13.60
2022-10-12T22:11:13.649Z,13.50
2022-10-12T22:16:14.419Z,13.50
2022-10-12T22:18:42.900Z,13.50
2022-10-12T22:31:19.030Z,13.30
2022-10-12T22:33:57.433Z,13.20
2022-10-12T22:36:28.306Z,13.20
2022-10-12T22:49:07.705Z,13.10
2022-10-12T22:51:38.918Z,13.10
2022-10-12T22:54:08.693Z,13.10
2022-10-12T22:56:36.496Z,13.10
2022-10-12T22:59:07.055Z,13.00
